Aviation Digital Data Service (ADDS)

Output produced by METARs form (2300 UTC 21 May 2022)
found at http://www.aviationweather.gov/metar/data/
 
TAF TTPP 212200Z 2200/2224 09005KT 6000 FEW016 
     BECMG 2211/2213 09013KT 9000 SCT025
       
TAF TTCP 212200Z 2200/2224 07005KT 9000 FEW016 
     BECMG 2211/2213 09013KT FEW022